sensor_id;sensor_type;location;lat;lon;timestamp;pressure;altitude;pressure_sealevel;temperature;humidity
34065;BME280;20339;49.754;20.158;2023-01-29T00:01:57;97390.28;;;-2.97;98.64
34065;BME280;20339;49.754;20.158;2023-01-29T00:04:28;97389.96;;;-2.97;98.90
34065;BME280;20339;49.754;20.158;2023-01-29T00:07:00;97388.98;;;-2.96;98.94
34065;BME280;20339;49.754;20.158;2023-01-29T00:09:33;97383.05;;;-2.98;98.75
34065;BME280;20339;49.754;20.158;2023-01-29T00:12:05;97375.08;;;-2.97;98.92
34065;BME280;20339;49.754;20.158;2023-01-29T00:14:37;97370.96;;;-2.98;98.94
34065;BME280;20339;49.754;20.158;2023-01-29T00:17:09;97372.25;;;-2.97;98.93
34065;BME280;20339;49.754;20.158;2023-01-29T00:19:40;97372.31;;;-2.94;99.02
34065;BME280;20339;49.754;20.158;2023-01-29T00:22:11;97379.40;;;-2.93;99.11
34065;BME280;20339;49.754;20.158;2023-01-29T00:24:43;97384.31;;;-2.90;99.18
34065;BME280;20339;49.754;20.158;2023-01-29T00:27:14;97388.29;;;-2.89;98.99
34065;BME280;20339;49.754;20.158;2023-01-29T00:29:46;97392.69;;;-2.88;99.11
34065;BME280;20339;49.754;20.158;2023-01-29T00:32:37;97394.55;;;-2.89;99.16
34065;BME280;20339;49.754;20.158;2023-01-29T00:35:10;97395.42;;;-2.89;99.37
34065;BME280;20339;49.754;20.158;2023-01-29T00:37:43;97394.81;;;-2.87;99.44
34065;BME280;20339;49.754;20.158;2023-01-29T00:40:15;97395.23;;;-2.86;99.47
34065;BME280;20339;49.754;20.158;2023-01-29T00:42:47;97399.22;;;-2.86;99.62
34065;BME280;20339;49.754;20.158;2023-01-29T00:45:35;97398.11;;;-2.85;99.33
34065;BME280;20339;49.754;20.158;2023-01-29T00:48:07;97395.57;;;-2.87;99.48
34065;BME280;20339;49.754;20.158;2023-01-29T00:50:38;97397.89;;;-2.89;99.69
34065;BME280;20339;49.754;20.158;2023-01-29T00:53:09;97393.95;;;-2.91;99.92
34065;BME280;20339;49.754;20.158;2023-01-29T00:55:40;97397.30;;;-2.92;99.84
34065;BME280;20339;49.754;20.158;2023-01-29T00:58:12;97398.41;;;-2.92;99.87
34065;BME280;20339;49.754;20.158;2023-01-29T01:00:44;97396.33;;;-2.92;99.96
34065;BME280;20339;49.754;20.158;2023-01-29T01:03:15;97393.64;;;-2.93;100.00
34065;BME280;20339;49.754;20.158;2023-01-29T01:05:47;97387.85;;;-2.94;100.00
34065;BME280;20339;49.754;20.158;2023-01-29T01:08:18;97384.35;;;-2.95;100.00
34065;BME280;20339;49.754;20.158;2023-01-29T01:11:07;97388.17;;;-2.95;100.00
34065;BME280;20339;49.754;20.158;2023-01-29T01:13:38;97391.20;;;-2.96;100.00
34065;BME280;20339;49.754;20.158;2023-01-29T01:16:12;97390.92;;;-2.94;100.00
34065;BME280;20339;49.754;20.158;2023-01-29T01:18:43;97399.82;;;-2.91;100.00
34065;BME280;20339;49.754;20.158;2023-01-29T01:21:14;97393.52;;;-2.89;100.00
34065;BME280;20339;49.754;20.158;2023-01-29T01:23:46;97389.43;;;-2.89;100.00
34065;BME280;20339;49.754;20.158;2023-01-29T01:26:21;97392.58;;;-2.90;100.00
34065;BME280;20339;49.754;20.158;2023-01-29T01:28:53;97400.33;;;-2.90;100.00
34065;BME280;20339;49.754;20.158;2023-01-29T01:31:24;97400.86;;;-2.88;100.00
34065;BME280;20339;49.754;20.158;2023-01-29T01:33:58;97399.45;;;-2.90;100.00
34065;BME280;20339;49.754;20.158;2023-01-29T01:36:29;97407.36;;;-2.89;100.00
34065;BME280;20339;49.754;20.158;2023-01-29T01:39:01;97403.55;;;-2.88;100.00
34065;BME280;20339;49.754;20.158;2023-01-29T01:41:32;97400.71;;;-2.86;100.00
34065;BME280;20339;49.754;20.158;2023-01-29T01:44:05;97400.86;;;-2.88;100.00
34065;BME280;20339;49.754;20.158;2023-01-29T01:46:39;97400.11;;;-2.88;100.00
34065;BME280;20339;49.754;20.158;2023-01-29T01:49:15;97401.07;;;-2.86;100.00
34065;BME280;20339;49.754;20.158;2023-01-29T01:51:51;97397.02;;;-2.84;100.00
34065;BME280;20339;49.754;20.158;2023-01-29T01:54:25;97395.36;;;-2.83;100.00
34065;BME280;20339;49.754;20.158;2023-01-29T01:57:03;97403.21;;;-2.83;100.00
34065;BME280;20339;49.754;20.158;2023-01-29T01:59:49;97403.08;;;-2.82;100.00
34065;BME280;20339;49.754;20.158;2023-01-29T02:02:22;97404.22;;;-2.81;100.00
34065;BME280;20339;49.754;20.158;2023-01-29T02:05:15;97403.77;;;-2.82;100.00
34065;BME280;20339;49.754;20.158;2023-01-29T02:08:04;97407.58;;;-2.85;100.00
34065;BME280;20339;49.754;20.158;2023-01-29T02:10:53;97413.97;;;-2.86;99.95
34065;BME280;20339;49.754;20.158;2023-01-29T02:13:25;97414.43;;;-2.86;99.96
34065;BME280;20339;49.754;20.158;2023-01-29T02:15:56;97406.15;;;-2.85;99.96
34065;BME280;20339;49.754;20.158;2023-01-29T02:18:27;97399.69;;;-2.84;99.96
34065;BME280;20339;49.754;20.158;2023-01-29T02:21:18;97396.23;;;-2.86;99.86
34065;BME280;20339;49.754;20.158;2023-01-29T02:27:02;97401.64;;;-2.85;99.64
34065;BME280;20339;49.754;20.158;2023-01-29T02:29:46;97394.33;;;-2.84;99.53
34065;BME280;20339;49.754;20.158;2023-01-29T02:32:28;97383.98;;;-2.86;99.60
34065;BME280;20339;49.754;20.158;2023-01-29T02:35:08;97369.05;;;-2.88;99.73
34065;BME280;20339;49.754;20.158;2023-01-29T02:38:04;97369.61;;;-2.92;99.86
34065;BME280;20339;49.754;20.158;2023-01-29T02:40:42;97361.62;;;-2.94;99.95
34065;BME280;20339;49.754;20.158;2023-01-29T02:43:28;97358.39;;;-2.98;99.90
34065;BME280;20339;49.754;20.158;2023-01-29T02:46:09;97353.07;;;-3.02;100.00
34065;BME280;20339;49.754;20.158;2023-01-29T02:48:44;97347.30;;;-3.03;99.95
34065;BME280;20339;49.754;20.158;2023-01-29T02:51:25;97348.04;;;-3.05;100.00
34065;BME280;20339;49.754;20.158;2023-01-29T02:54:02;97349.91;;;-3.04;100.00
34065;BME280;20339;49.754;20.158;2023-01-29T02:56:38;97343.56;;;-3.05;100.00
34065;BME280;20339;49.754;20.158;2023-01-29T02:59:14;97345.28;;;-3.05;99.97
34065;BME280;20339;49.754;20.158;2023-01-29T03:01:50;97345.80;;;-3.05;99.89
34065;BME280;20339;49.754;20.158;2023-01-29T03:04:28;97346.73;;;-3.04;99.99
34065;BME280;20339;49.754;20.158;2023-01-29T03:07:04;97345.95;;;-3.03;99.84
34065;BME280;20339;49.754;20.158;2023-01-29T03:09:43;97344.72;;;-3.03;99.67
34065;BME280;20339;49.754;20.158;2023-01-29T03:12:22;97346.98;;;-3.03;99.32
34065;BME280;20339;49.754;20.158;2023-01-29T03:15:04;97349.78;;;-3.03;99.16
34065;BME280;20339;49.754;20.158;2023-01-29T03:17:50;97356.94;;;-3.05;99.12
34065;BME280;20339;49.754;20.158;2023-01-29T03:20:25;97361.52;;;-3.06;99.22
34065;BME280;20339;49.754;20.158;2023-01-29T03:23:01;97358.89;;;-3.09;99.13
34065;BME280;20339;49.754;20.158;2023-01-29T03:25:35;97359.52;;;-3.11;98.91
34065;BME280;20339;49.754;20.158;2023-01-29T03:28:27;97361.45;;;-3.13;98.73
34065;BME280;20339;49.754;20.158;2023-01-29T03:31:18;97363.63;;;-3.11;98.73
34065;BME280;20339;49.754;20.158;2023-01-29T03:34:08;97368.14;;;-3.11;98.73
34065;BME280;20339;49.754;20.158;2023-01-29T03:36:50;97369.63;;;-3.10;98.71
34065;BME280;20339;49.754;20.158;2023-01-29T03:39:23;97374.14;;;-3.15;98.56
34065;BME280;20339;49.754;20.158;2023-01-29T03:42:04;97378.64;;;-3.18;98.58
34065;BME280;20339;49.754;20.158;2023-01-29T03:44:48;97367.20;;;-3.21;98.51
34065;BME280;20339;49.754;20.158;2023-01-29T03:47:30;97370.54;;;-3.21;98.35
34065;BME280;20339;49.754;20.158;2023-01-29T03:50:08;97364.05;;;-3.24;98.33
34065;BME280;20339;49.754;20.158;2023-01-29T03:52:45;97362.52;;;-3.24;98.29
34065;BME280;20339;49.754;20.158;2023-01-29T03:55:27;97361.08;;;-3.25;98.27
34065;BME280;20339;49.754;20.158;2023-01-29T03:58:08;97369.30;;;-3.27;98.03
34065;BME280;20339;49.754;20.158;2023-01-29T04:00:48;97369.30;;;-3.27;97.98
34065;BME280;20339;49.754;20.158;2023-01-29T04:03:24;97375.71;;;-3.27;97.95
34065;BME280;20339;49.754;20.158;2023-01-29T04:06:03;97377.10;;;-3.27;97.96
34065;BME280;20339;49.754;20.158;2023-01-29T04:08:47;97375.64;;;-3.27;98.02
34065;BME280;20339;49.754;20.158;2023-01-29T04:11:23;97369.85;;;-3.28;97.78
34065;BME280;20339;49.754;20.158;2023-01-29T04:13:55;97370.46;;;-3.28;97.75
34065;BME280;20339;49.754;20.158;2023-01-29T04:16:30;97365.96;;;-3.28;97.34
34065;BME280;20339;49.754;20.158;2023-01-29T04:19:03;97361.05;;;-3.31;97.19
34065;BME280;20339;49.754;20.158;2023-01-29T04:21:35;97359.97;;;-3.32;97.23
34065;BME280;20339;49.754;20.158;2023-01-29T04:24:07;97354.41;;;-3.30;97.51
34065;BME280;20339;49.754;20.158;2023-01-29T04:26:53;97349.58;;;-3.30;97.32
34065;BME280;20339;49.754;20.158;2023-01-29T04:29:41;97348.11;;;-3.33;96.51
34065;BME280;20339;49.754;20.158;2023-01-29T04:32:20;97342.70;;;-3.34;96.43
34065;BME280;20339;49.754;20.158;2023-01-29T04:35:00;97337.92;;;-3.36;96.51
34065;BME280;20339;49.754;20.158;2023-01-29T04:37:41;97336.50;;;-3.39;96.50
34065;BME280;20339;49.754;20.158;2023-01-29T04:40:22;97339.41;;;-3.41;96.42
34065;BME280;20339;49.754;20.158;2023-01-29T04:43:03;97339.42;;;-3.43;96.43
34065;BME280;20339;49.754;20.158;2023-01-29T04:45:52;97342.86;;;-3.44;96.58
34065;BME280;20339;49.754;20.158;2023-01-29T04:48:31;97354.16;;;-3.46;96.70
34065;BME280;20339;49.754;20.158;2023-01-29T04:51:12;97354.79;;;-3.47;96.87
34065;BME280;20339;49.754;20.158;2023-01-29T04:53:53;97347.19;;;-3.49;96.74
34065;BME280;20339;49.754;20.158;2023-01-29T04:56:27;97352.70;;;-3.49;96.63
34065;BME280;20339;49.754;20.158;2023-01-29T04:59:02;97354.96;;;-3.49;96.86
34065;BME280;20339;49.754;20.158;2023-01-29T05:01:36;97348.17;;;-3.51;96.54
34065;BME280;20339;49.754;20.158;2023-01-29T05:04:11;97345.89;;;-3.52;96.25
34065;BME280;20339;49.754;20.158;2023-01-29T05:06:44;97339.77;;;-3.54;96.22
34065;BME280;20339;49.754;20.158;2023-01-29T05:09:17;97322.83;;;-3.53;96.22
34065;BME280;20339;49.754;20.158;2023-01-29T05:11:50;97317.82;;;-3.58;96.10
34065;BME280;20339;49.754;20.158;2023-01-29T05:14:23;97313.27;;;-3.61;96.39
34065;BME280;20339;49.754;20.158;2023-01-29T05:17:00;97316.15;;;-3.60;96.37
34065;BME280;20339;49.754;20.158;2023-01-29T05:19:33;97312.58;;;-3.59;96.51
34065;BME280;20339;49.754;20.158;2023-01-29T05:22:08;97307.44;;;-3.61;96.31
34065;BME280;20339;49.754;20.158;2023-01-29T05:24:44;97302.40;;;-3.62;96.18
34065;BME280;20339;49.754;20.158;2023-01-29T05:27:19;97295.77;;;-3.60;96.39
34065;BME280;20339;49.754;20.158;2023-01-29T05:30:12;97298.60;;;-3.61;96.41
34065;BME280;20339;49.754;20.158;2023-01-29T05:32:44;97297.44;;;-3.61;96.43
34065;BME280;20339;49.754;20.158;2023-01-29T05:35:17;97295.70;;;-3.63;96.47
34065;BME280;20339;49.754;20.158;2023-01-29T05:37:49;97298.29;;;-3.63;96.55
34065;BME280;20339;49.754;20.158;2023-01-29T05:40:20;97297.48;;;-3.63;96.68
34065;BME280;20339;49.754;20.158;2023-01-29T05:42:51;97292.73;;;-3.64;96.42
34065;BME280;20339;49.754;20.158;2023-01-29T05:45:22;97292.93;;;-3.64;96.09
34065;BME280;20339;49.754;20.158;2023-01-29T05:47:58;97292.52;;;-3.65;95.82
34065;BME280;20339;49.754;20.158;2023-01-29T05:50:30;97297.39;;;-3.64;95.40
34065;BME280;20339;49.754;20.158;2023-01-29T05:53:02;97300.27;;;-3.62;95.13
34065;BME280;20339;49.754;20.158;2023-01-29T05:55:34;97299.47;;;-3.61;94.97
34065;BME280;20339;49.754;20.158;2023-01-29T05:58:05;97307.27;;;-3.61;94.98
34065;BME280;20339;49.754;20.158;2023-01-29T06:00:37;97310.46;;;-3.62;94.94
34065;BME280;20339;49.754;20.158;2023-01-29T06:03:08;97317.52;;;-3.62;95.02
34065;BME280;20339;49.754;20.158;2023-01-29T06:05:41;97318.30;;;-3.61;94.90
34065;BME280;20339;49.754;20.158;2023-01-29T06:08:13;97320.71;;;-3.59;94.89
34065;BME280;20339;49.754;20.158;2023-01-29T06:10:45;97324.57;;;-3.60;94.92
34065;BME280;20339;49.754;20.158;2023-01-29T06:13:17;97328.83;;;-3.61;94.79
34065;BME280;20339;49.754;20.158;2023-01-29T06:15:48;97334.05;;;-3.60;95.04
34065;BME280;20339;49.754;20.158;2023-01-29T06:18:20;97339.48;;;-3.59;95.01
34065;BME280;20339;49.754;20.158;2023-01-29T06:20:51;97342.94;;;-3.60;94.94
34065;BME280;20339;49.754;20.158;2023-01-29T06:23:22;97346.73;;;-3.65;94.73
34065;BME280;20339;49.754;20.158;2023-01-29T06:26:00;97352.68;;;-3.69;94.79
34065;BME280;20339;49.754;20.158;2023-01-29T06:28:31;97355.67;;;-3.69;94.83
34065;BME280;20339;49.754;20.158;2023-01-29T06:31:04;97354.58;;;-3.75;94.85
34065;BME280;20339;49.754;20.158;2023-01-29T06:33:37;97360.04;;;-3.79;94.88
34065;BME280;20339;49.754;20.158;2023-01-29T06:36:09;97361.23;;;-3.80;94.98
34065;BME280;20339;49.754;20.158;2023-01-29T06:38:41;97362.20;;;-3.81;95.07
34065;BME280;20339;49.754;20.158;2023-01-29T06:41:14;97360.69;;;-3.83;94.94
34065;BME280;20339;49.754;20.158;2023-01-29T06:43:46;97366.35;;;-3.88;94.65
34065;BME280;20339;49.754;20.158;2023-01-29T06:46:18;97366.89;;;-3.89;94.38
34065;BME280;20339;49.754;20.158;2023-01-29T06:48:49;97364.11;;;-3.91;94.43
34065;BME280;20339;49.754;20.158;2023-01-29T06:51:20;97364.40;;;-3.90;94.19
34065;BME280;20339;49.754;20.158;2023-01-29T06:53:54;97367.12;;;-3.91;93.85
34065;BME280;20339;49.754;20.158;2023-01-29T06:56:26;97379.98;;;-3.94;93.73
34065;BME280;20339;49.754;20.158;2023-01-29T06:58:58;97381.91;;;-3.96;93.61
34065;BME280;20339;49.754;20.158;2023-01-29T07:01:30;97373.33;;;-3.96;93.65
34065;BME280;20339;49.754;20.158;2023-01-29T07:04:02;97382.30;;;-4.01;93.56
34065;BME280;20339;49.754;20.158;2023-01-29T07:06:34;97383.86;;;-4.04;93.51
34065;BME280;20339;49.754;20.158;2023-01-29T07:09:05;97386.77;;;-4.05;93.36
34065;BME280;20339;49.754;20.158;2023-01-29T07:11:38;97393.45;;;-4.11;92.94
34065;BME280;20339;49.754;20.158;2023-01-29T07:14:10;97394.80;;;-4.12;93.15
34065;BME280;20339;49.754;20.158;2023-01-29T07:16:41;97395.14;;;-4.09;93.15
34065;BME280;20339;49.754;20.158;2023-01-29T07:19:12;97392.99;;;-4.15;92.78
34065;BME280;20339;49.754;20.158;2023-01-29T07:21:43;97397.38;;;-4.19;92.87
34065;BME280;20339;49.754;20.158;2023-01-29T07:24:17;97399.61;;;-4.17;92.87
34065;BME280;20339;49.754;20.158;2023-01-29T07:26:48;97398.31;;;-4.18;92.59
34065;BME280;20339;49.754;20.158;2023-01-29T07:29:19;97393.05;;;-4.23;91.92
34065;BME280;20339;49.754;20.158;2023-01-29T07:31:51;97387.54;;;-4.33;91.29
34065;BME280;20339;49.754;20.158;2023-01-29T07:34:22;97391.70;;;-4.43;90.54
34065;BME280;20339;49.754;20.158;2023-01-29T07:36:54;97385.27;;;-4.52;90.03
34065;BME280;20339;49.754;20.158;2023-01-29T07:39:26;97380.42;;;-4.55;90.13
34065;BME280;20339;49.754;20.158;2023-01-29T07:41:57;97383.55;;;-4.57;90.03
34065;BME280;20339;49.754;20.158;2023-01-29T07:44:29;97385.35;;;-4.57;89.83
34065;BME280;20339;49.754;20.158;2023-01-29T07:47:02;97389.39;;;-4.58;89.57
34065;BME280;20339;49.754;20.158;2023-01-29T07:49:33;97388.38;;;-4.61;88.89
34065;BME280;20339;49.754;20.158;2023-01-29T07:52:05;97387.42;;;-4.67;88.47
34065;BME280;20339;49.754;20.158;2023-01-29T07:54:36;97386.40;;;-4.72;87.99
34065;BME280;20339;49.754;20.158;2023-01-29T07:57:08;97381.03;;;-4.73;87.87
34065;BME280;20339;49.754;20.158;2023-01-29T07:59:39;97382.52;;;-4.74;87.62
34065;BME280;20339;49.754;20.158;2023-01-29T08:02:10;97393.84;;;-4.74;87.40
34065;BME280;20339;49.754;20.158;2023-01-29T08:04:44;97400.85;;;-4.70;87.52
34065;BME280;20339;49.754;20.158;2023-01-29T08:07:16;97403.42;;;-4.67;86.75
34065;BME280;20339;49.754;20.158;2023-01-29T08:09:47;97408.20;;;-4.64;86.20
34065;BME280;20339;49.754;20.158;2023-01-29T08:12:19;97422.70;;;-4.66;85.22
34065;BME280;20339;49.754;20.158;2023-01-29T08:14:50;97429.16;;;-4.66;84.92
34065;BME280;20339;49.754;20.158;2023-01-29T08:17:21;97441.44;;;-4.64;84.29
34065;BME280;20339;49.754;20.158;2023-01-29T08:19:53;97447.96;;;-4.64;83.77
34065;BME280;20339;49.754;20.158;2023-01-29T08:22:24;97454.36;;;-4.64;83.72
34065;BME280;20339;49.754;20.158;2023-01-29T08:24:55;97449.83;;;-4.67;83.46
34065;BME280;20339;49.754;20.158;2023-01-29T08:27:26;97454.81;;;-4.71;83.51
34065;BME280;20339;49.754;20.158;2023-01-29T08:29:57;97455.85;;;-4.73;83.73
34065;BME280;20339;49.754;20.158;2023-01-29T08:32:30;97464.42;;;-4.76;83.47
34065;BME280;20339;49.754;20.158;2023-01-29T08:35:08;97467.06;;;-4.78;83.50
34065;BME280;20339;49.754;20.158;2023-01-29T08:37:39;97474.05;;;-4.77;83.72
34065;BME280;20339;49.754;20.158;2023-01-29T08:40:12;97481.71;;;-4.73;83.45
34065;BME280;20339;49.754;20.158;2023-01-29T08:42:43;97490.05;;;-4.72;83.36
34065;BME280;20339;49.754;20.158;2023-01-29T08:45:14;97486.08;;;-4.70;83.25
34065;BME280;20339;49.754;20.158;2023-01-29T08:47:50;97494.20;;;-4.66;83.67
34065;BME280;20339;49.754;20.158;2023-01-29T08:50:21;97496.43;;;-4.56;83.70
34065;BME280;20339;49.754;20.158;2023-01-29T08:52:52;97500.65;;;-4.50;83.83
34065;BME280;20339;49.754;20.158;2023-01-29T08:55:27;97508.67;;;-4.47;83.48
34065;BME280;20339;49.754;20.158;2023-01-29T08:57:58;97509.73;;;-4.45;83.67
34065;BME280;20339;49.754;20.158;2023-01-29T09:00:30;97507.92;;;-4.28;84.04
34065;BME280;20339;49.754;20.158;2023-01-29T09:03:01;97502.42;;;-3.97;84.28
34065;BME280;20339;49.754;20.158;2023-01-29T09:05:33;97491.45;;;-3.69;84.40
34065;BME280;20339;49.754;20.158;2023-01-29T09:08:04;97483.35;;;-3.52;83.50
34065;BME280;20339;49.754;20.158;2023-01-29T09:10:36;97476.94;;;-3.60;82.57
34065;BME280;20339;49.754;20.158;2023-01-29T09:13:07;97480.92;;;-3.60;82.21
34065;BME280;20339;49.754;20.158;2023-01-29T09:15:38;97475.52;;;-3.60;81.63
34065;BME280;20339;49.754;20.158;2023-01-29T09:18:09;97484.36;;;-3.55;81.21
34065;BME280;20339;49.754;20.158;2023-01-29T09:20:41;97475.13;;;-3.49;81.54
34065;BME280;20339;49.754;20.158;2023-01-29T09:23:13;97470.32;;;-3.48;81.23
34065;BME280;20339;49.754;20.158;2023-01-29T09:25:44;97465.66;;;-3.43;81.34
34065;BME280;20339;49.754;20.158;2023-01-29T09:28:16;97457.83;;;-3.31;81.49
34065;BME280;20339;49.754;20.158;2023-01-29T09:30:52;97448.27;;;-3.27;81.89
34065;BME280;20339;49.754;20.158;2023-01-29T09:33:23;97449.55;;;-3.26;81.17
34065;BME280;20339;49.754;20.158;2023-01-29T09:35:54;97446.80;;;-3.30;81.31
34065;BME280;20339;49.754;20.158;2023-01-29T09:38:26;97443.63;;;-3.35;80.58
34065;BME280;20339;49.754;20.158;2023-01-29T09:41:02;97445.86;;;-3.40;80.55
34065;BME280;20339;49.754;20.158;2023-01-29T09:43:42;97448.69;;;-3.40;80.85
34065;BME280;20339;49.754;20.158;2023-01-29T09:46:21;97454.34;;;-3.32;81.21
34065;BME280;20339;49.754;20.158;2023-01-29T09:49:00;97446.59;;;-3.14;81.76
34065;BME280;20339;49.754;20.158;2023-01-29T09:51:39;97436.45;;;-2.96;81.21
34065;BME280;20339;49.754;20.158;2023-01-29T09:54:16;97430.29;;;-3.01;80.29
34065;BME280;20339;49.754;20.158;2023-01-29T09:56:51;97425.61;;;-3.13;80.04
34065;BME280;20339;49.754;20.158;2023-01-29T09:59:28;97421.81;;;-3.10;80.46
34065;BME280;20339;49.754;20.158;2023-01-29T10:02:09;97415.81;;;-3.18;79.78
34065;BME280;20339;49.754;20.158;2023-01-29T10:04:59;97414.40;;;-3.37;79.17
34065;BME280;20339;49.754;20.158;2023-01-29T10:07:49;97415.34;;;-3.37;79.83
34065;BME280;20339;49.754;20.158;2023-01-29T10:10:32;97408.65;;;-3.33;79.33
34065;BME280;20339;49.754;20.158;2023-01-29T10:13:18;97406.31;;;-3.34;79.20
34065;BME280;20339;49.754;20.158;2023-01-29T10:16:04;97400.17;;;-3.16;79.00
34065;BME280;20339;49.754;20.158;2023-01-29T10:19:10;97387.48;;;-2.94;79.11
34065;BME280;20339;49.754;20.158;2023-01-29T10:22:02;97382.33;;;-2.60;78.94
34065;BME280;20339;49.754;20.158;2023-01-29T10:24:40;97374.14;;;-2.27;78.92
34065;BME280;20339;49.754;20.158;2023-01-29T10:27:17;97364.73;;;-1.99;79.23
34065;BME280;20339;49.754;20.158;2023-01-29T10:29:52;97355.56;;;-2.04;77.11
34065;BME280;20339;49.754;20.158;2023-01-29T10:32:26;97357.18;;;-2.12;77.76
34065;BME280;20339;49.754;20.158;2023-01-29T10:35:03;97346.98;;;-2.00;78.11
34065;BME280;20339;49.754;20.158;2023-01-29T10:37:38;97345.35;;;-1.89;77.60
34065;BME280;20339;49.754;20.158;2023-01-29T10:40:21;97342.64;;;-1.95;77.20
34065;BME280;20339;49.754;20.158;2023-01-29T10:42:59;97342.84;;;-2.17;76.85
34065;BME280;20339;49.754;20.158;2023-01-29T10:45:40;97344.79;;;-2.21;77.24
34065;BME280;20339;49.754;20.158;2023-01-29T10:48:37;97349.48;;;-2.40;76.32
34065;BME280;20339;49.754;20.158;2023-01-29T10:51:17;97339.64;;;-2.63;75.90
34065;BME280;20339;49.754;20.158;2023-01-29T10:54:02;97338.88;;;-2.79;76.00
34065;BME280;20339;49.754;20.158;2023-01-29T10:56:51;97331.55;;;-2.75;76.73
34065;BME280;20339;49.754;20.158;2023-01-29T10:59:43;97324.52;;;-2.80;76.72
34065;BME280;20339;49.754;20.158;2023-01-29T11:02:21;97326.48;;;-2.88;76.53
34065;BME280;20339;49.754;20.158;2023-01-29T11:04:53;97319.21;;;-2.88;76.68
34065;BME280;20339;49.754;20.158;2023-01-29T11:07:25;97314.29;;;-2.92;76.20
34065;BME280;20339;49.754;20.158;2023-01-29T11:10:03;97305.27;;;-2.96;75.61
34065;BME280;20339;49.754;20.158;2023-01-29T11:12:38;97300.48;;;-2.92;75.76
34065;BME280;20339;49.754;20.158;2023-01-29T11:15:20;97288.06;;;-2.88;75.65
34065;BME280;20339;49.754;20.158;2023-01-29T11:18:05;97274.45;;;-2.86;75.39
34065;BME280;20339;49.754;20.158;2023-01-29T11:20:40;97264.80;;;-2.78;75.52
34065;BME280;20339;49.754;20.158;2023-01-29T11:23:26;97259.32;;;-2.73;76.17
34065;BME280;20339;49.754;20.158;2023-01-29T11:25:59;97246.95;;;-2.64;75.83
34065;BME280;20339;49.754;20.158;2023-01-29T11:28:39;97240.30;;;-2.70;76.15
34065;BME280;20339;49.754;20.158;2023-01-29T11:31:22;97228.22;;;-2.69;75.67
34065;BME280;20339;49.754;20.158;2023-01-29T11:34:05;97226.84;;;-2.68;75.53
34065;BME280;20339;49.754;20.158;2023-01-29T11:36:45;97222.35;;;-2.49;75.92
34065;BME280;20339;49.754;20.158;2023-01-29T11:39:19;97219.20;;;-2.32;75.51
34065;BME280;20339;49.754;20.158;2023-01-29T11:41:54;97224.66;;;-2.27;74.88
34065;BME280;20339;49.754;20.158;2023-01-29T11:44:33;97215.98;;;-2.30;75.23
34065;BME280;20339;49.754;20.158;2023-01-29T11:47:19;97214.02;;;-2.34;74.59
34065;BME280;20339;49.754;20.158;2023-01-29T11:49:54;97204.51;;;-2.44;74.24
34065;BME280;20339;49.754;20.158;2023-01-29T11:52:35;97204.77;;;-2.55;73.96
34065;BME280;20339;49.754;20.158;2023-01-29T11:55:16;97198.90;;;-2.62;73.68
34065;BME280;20339;49.754;20.158;2023-01-29T11:57:55;97196.98;;;-2.77;73.32
34065;BME280;20339;49.754;20.158;2023-01-29T12:00:36;97198.41;;;-2.86;73.55
34065;BME280;20339;49.754;20.158;2023-01-29T12:03:17;97194.00;;;-2.91;73.33
34065;BME280;20339;49.754;20.158;2023-01-29T12:05:58;97187.77;;;-2.89;74.06
34065;BME280;20339;49.754;20.158;2023-01-29T12:08:35;97188.85;;;-2.83;73.74
34065;BME280;20339;49.754;20.158;2023-01-29T12:11:14;97184.81;;;-2.81;73.45
34065;BME280;20339;49.754;20.158;2023-01-29T12:13:56;97186.35;;;-2.84;73.02
34065;BME280;20339;49.754;20.158;2023-01-29T12:16:32;97183.34;;;-2.89;72.96
34065;BME280;20339;49.754;20.158;2023-01-29T12:19:13;97178.16;;;-2.85;72.86
34065;BME280;20339;49.754;20.158;2023-01-29T12:21:51;97176.90;;;-2.65;72.62
34065;BME280;20339;49.754;20.158;2023-01-29T12:24:34;97177.52;;;-2.57;73.10
34065;BME280;20339;49.754;20.158;2023-01-29T12:27:16;97168.66;;;-2.63;72.81
34065;BME280;20339;49.754;20.158;2023-01-29T12:29:57;97160.56;;;-2.79;72.71
34065;BME280;20339;49.754;20.158;2023-01-29T12:32:33;97157.14;;;-2.72;73.24
34065;BME280;20339;49.754;20.158;2023-01-29T12:35:15;97157.25;;;-2.55;73.24
34065;BME280;20339;49.754;20.158;2023-01-29T12:37:55;97155.55;;;-2.53;73.13
34065;BME280;20339;49.754;20.158;2023-01-29T12:40:33;97149.93;;;-2.59;72.44
34065;BME280;20339;49.754;20.158;2023-01-29T12:43:16;97155.89;;;-2.69;72.66
34065;BME280;20339;49.754;20.158;2023-01-29T12:45:51;97158.39;;;-2.51;73.32
34065;BME280;20339;49.754;20.158;2023-01-29T12:48:29;97161.29;;;-2.49;72.14
34065;BME280;20339;49.754;20.158;2023-01-29T12:51:05;97165.20;;;-2.58;71.69
34065;BME280;20339;49.754;20.158;2023-01-29T12:53:46;97165.23;;;-2.82;71.52
34065;BME280;20339;49.754;20.158;2023-01-29T12:56:27;97170.24;;;-3.01;71.80
34065;BME280;20339;49.754;20.158;2023-01-29T12:59:09;97164.13;;;-3.12;71.99
34065;BME280;20339;49.754;20.158;2023-01-29T13:01:49;97166.98;;;-3.20;72.52
34065;BME280;20339;49.754;20.158;2023-01-29T13:04:31;97164.86;;;-3.23;72.96
34065;BME280;20339;49.754;20.158;2023-01-29T13:07:13;97165.73;;;-3.26;73.09
34065;BME280;20339;49.754;20.158;2023-01-29T13:09:48;97163.48;;;-3.31;73.27
34065;BME280;20339;49.754;20.158;2023-01-29T13:12:24;97172.52;;;-3.33;73.60
34065;BME280;20339;49.754;20.158;2023-01-29T13:15:01;97172.23;;;-3.32;74.12
34065;BME280;20339;49.754;20.158;2023-01-29T13:17:38;97170.20;;;-3.21;74.23
34065;BME280;20339;49.754;20.158;2023-01-29T13:20:18;97168.49;;;-3.01;74.39
34065;BME280;20339;49.754;20.158;2023-01-29T13:22:57;97164.77;;;-2.81;74.72
34065;BME280;20339;49.754;20.158;2023-01-29T13:25:30;97158.61;;;-2.62;74.24
34065;BME280;20339;49.754;20.158;2023-01-29T13:28:03;97163.88;;;-2.53;74.01
34065;BME280;20339;49.754;20.158;2023-01-29T13:30:37;97169.91;;;-2.54;73.57
34065;BME280;20339;49.754;20.158;2023-01-29T13:33:19;97173.39;;;-2.65;73.26
34065;BME280;20339;49.754;20.158;2023-01-29T13:35:59;97176.26;;;-2.78;73.96
34065;BME280;20339;49.754;20.158;2023-01-29T13:38:32;97173.85;;;-2.82;74.21
34065;BME280;20339;49.754;20.158;2023-01-29T13:41:08;97162.70;;;-2.89;74.15